Time;durP1;ratioP1;P1;durP2;ratioP2;P2;SDS_P1;SDS_P2;PMS_P1;PMS_P2;Temp;Humidity;BMP_temperature;BMP_pressure;BME280_temperature;BME280_humidity;BME280_pressure;Samples;Min_cycle;Max_cycle;Signal;HPM_P1;HPM_P2
2022/08/30 00:01:01;;;;;;;9.15;8.43;;;;;;;20.09;77.98;95868.38;4975198;28;20208;-83
2022/08/30 00:03:29;;;;;;;9.10;8.30;;;;;;;20.07;78.21;95873.03;4975393;28;20346;-83
2022/08/30 00:05:55;;;;;;;9.23;8.35;;;;;;;20.01;78.66;95871.34;4955387;28;20243;-83
2022/08/30 00:08:22;;;;;;;8.90;8.10;;;;;;;19.99;78.44;95862.94;4959770;28;20283;-83
2022/08/30 00:10:50;;;;;;;9.93;9.02;;;;;;;19.95;78.68;95862.59;4958599;28;20209;-82
2022/08/30 00:13:18;;;;;;;8.75;7.95;;;;;;;20.00;78.72;95859.28;4959882;28;20295;-83
2022/08/30 00:15:45;;;;;;;9.65;8.75;;;;;;;19.96;78.70;95866.78;4977405;28;20238;-83
2022/08/30 00:18:14;;;;;;;9.55;8.65;;;;;;;19.93;78.84;95862.03;4978451;28;20259;-83
2022/08/30 00:20:41;;;;;;;9.80;8.60;;;;;;;19.89;79.14;95865.31;4978021;28;20726;-83
2022/08/30 00:23:08;;;;;;;9.45;8.55;;;;;;;19.85;79.24;95862.34;4978991;28;20239;-83
2022/08/30 00:25:34;;;;;;;9.60;8.80;;;;;;;19.85;79.23;95866.78;4978759;28;20243;-83
2022/08/30 00:28:01;;;;;;;10.18;8.55;;;;;;;19.91;78.83;95858.03;4978466;28;20274;-83
2022/08/30 00:30:28;;;;;;;8.68;7.88;;;;;;;19.93;78.34;95853.38;4977667;28;20231;-83
2022/08/30 00:32:54;;;;;;;9.02;8.10;;;;;;;19.87;78.35;95855.09;4978322;28;20208;-83
2022/08/30 00:35:23;;;;;;;9.30;8.40;;;;;;;19.83;78.57;95859.16;4977868;28;20673;-83
2022/08/30 00:37:49;;;;;;;8.88;8.18;;;;;;;19.84;78.63;95857.34;4977746;28;20220;-83
2022/08/30 00:40:19;;;;;;;8.98;8.07;;;;;;;19.85;78.86;95862.34;4977327;28;20665;-83
2022/08/30 00:42:46;;;;;;;10.20;9.30;;;;;;;19.91;78.11;95861.44;4977856;28;20220;-83
2022/08/30 00:45:15;;;;;;;9.52;8.63;;;;;;;19.86;78.07;95855.31;4977158;28;20228;-82
2022/08/30 00:47:42;;;;;;;9.45;8.50;;;;;;;19.87;78.06;95857.69;4977916;28;20236;-83
2022/08/30 00:50:11;;;;;;;9.18;8.30;;;;;;;19.77;78.53;95857.47;4977419;28;20235;-83
2022/08/30 00:52:42;;;;;;;9.63;8.30;;;;;;;19.76;78.37;95855.88;4977447;28;20698;-83
2022/08/30 00:55:13;;;;;;;11.75;9.02;;;;;;;19.74;78.63;95855.31;4977570;28;20235;-83
2022/08/30 00:57:41;;;;;;;11.10;8.38;;;;;;;19.65;79.33;95846.22;4977768;28;20260;-83
2022/08/30 01:00:09;;;;;;;8.88;7.95;;;;;;;19.72;78.50;95844.28;4976916;28;20212;-82
2022/08/30 01:02:35;;;;;;;8.65;7.85;;;;;;;19.73;78.58;95848.50;4977844;28;20227;-83
2022/08/30 01:05:04;;;;;;;8.75;7.90;;;;;;;19.76;78.09;95847.25;4977122;28;20228;-83
2022/08/30 01:07:32;;;;;;;8.65;7.85;;;;;;;19.73;77.99;95848.50;4976996;28;20651;-83
2022/08/30 01:10:00;;;;;;;8.80;8.07;;;;;;;19.69;78.31;95849.16;4977029;28;20300;-83
2022/08/30 01:12:28;;;;;;;8.88;8.07;;;;;;;19.71;78.27;95847.94;4976832;28;20207;-83
2022/08/30 01:14:55;;;;;;;9.07;8.27;;;;;;;19.70;77.96;95840.31;4976907;28;20235;-83
2022/08/30 01:17:22;;;;;;;8.93;8.20;;;;;;;19.68;77.86;95843.16;4976577;28;20224;-83
2022/08/30 01:19:53;;;;;;;9.10;8.30;;;;;;;19.61;77.62;95845.09;4977027;28;20200;-83
2022/08/30 01:22:27;;;;;;;8.77;7.97;;;;;;;19.54;78.28;95841.78;4976030;28;20224;-83
2022/08/30 01:24:58;;;;;;;8.77;7.97;;;;;;;19.58;77.89;95843.72;4976505;28;20716;-83
2022/08/30 01:27:26;;;;;;;9.02;8.20;;;;;;;19.53;78.34;95845.41;4978025;28;20236;-83
2022/08/30 01:29:53;;;;;;;9.38;8.52;;;;;;;19.56;78.08;95848.38;4977107;28;20262;-83
2022/08/30 01:32:22;;;;;;;8.55;7.85;;;;;;;19.52;78.19;95847.22;4976652;28;20204;-83
2022/08/30 01:34:50;;;;;;;9.45;8.65;;;;;;;19.48;78.18;95850.47;4976460;28;20232;-83
2022/08/30 01:37:19;;;;;;;8.65;7.85;;;;;;;19.49;78.27;95850.25;4976154;28;20267;-83
2022/08/30 01:39:47;;;;;;;9.02;7.85;;;;;;;19.57;78.08;95849.97;4976621;28;20207;-83
2022/08/30 01:42:16;;;;;;;8.88;8.18;;;;;;;19.52;78.36;95847.22;4976189;28;20224;-83
2022/08/30 01:44:42;;;;;;;9.07;8.27;;;;;;;19.50;77.96;95854.50;4976449;28;20228;-83
2022/08/30 01:47:10;;;;;;;9.27;8.57;;;;;;;19.41;78.40;95847.19;4976989;28;20230;-82
2022/08/30 01:49:38;;;;;;;9.43;8.25;;;;;;;19.36;78.74;95849.69;4977027;28;20219;-83
2022/08/30 01:52:05;;;;;;;10.77;8.02;;;;;;;19.35;78.82;95846.28;4976078;28;20207;-83
2022/08/30 01:54:34;;;;;;;9.13;7.85;;;;;;;19.37;78.48;95846.84;4976585;28;20294;-83
2022/08/30 01:57:00;;;;;;;8.30;7.65;;;;;;;19.35;78.63;95848.09;4977401;28;20224;-83
2022/08/30 01:59:29;;;;;;;8.38;7.63;;;;;;;19.37;78.48;95846.84;4977046;28;20208;-83
2022/08/30 02:01:55;;;;;;;8.98;8.13;;;;;;;19.43;78.27;95845.16;4976781;28;20215;-83
2022/08/30 02:04:22;;;;;;;8.63;7.93;;;;;;;19.42;78.21;95846.97;4975957;28;20638;-83
2022/08/30 02:06:48;;;;;;;8.65;7.93;;;;;;;19.40;78.43;95856.84;4975187;28;20224;-83
2022/08/30 02:09:15;;;;;;;9.20;8.40;;;;;;;19.37;78.70;95849.47;4976855;28;20226;-83
2022/08/30 02:11:42;;;;;;;8.57;7.72;;;;;;;19.22;78.90;95846.47;4976067;28;20274;-83
2022/08/30 02:14:08;;;;;;;8.73;8.00;;;;;;;19.25;78.51;95848.63;4975793;28;20259;-83
2022/08/30 02:16:36;;;;;;;8.40;7.60;;;;;;;19.23;78.68;95851.47;4976163;28;20687;-83
2022/08/30 02:19:03;;;;;;;8.38;7.68;;;;;;;19.28;78.65;95845.56;4975711;28;20619;-83
2022/08/30 02:21:30;;;;;;;7.85;7.05;;;;;;;19.25;78.68;95851.22;4975114;28;20212;-83
2022/08/30 02:23:56;;;;;;;7.70;7.05;;;;;;;19.32;78.41;95841.50;4975339;28;20231;-83
2022/08/30 02:26:23;;;;;;;8.25;7.40;;;;;;;19.26;77.81;95845.78;4976386;28;20210;-81
2022/08/30 02:28:50;;;;;;;8.65;7.82;;;;;;;19.20;78.10;95844.09;4976254;28;20224;-83
2022/08/30 02:31:18;;;;;;;7.88;7.28;;;;;;;19.07;78.94;95844.28;4974445;28;20243;-83
2022/08/30 02:33:46;;;;;;;8.63;7.72;;;;;;;19.02;78.75;95848.59;4974184;28;20215;-83
2022/08/30 02:36:13;;;;;;;8.18;7.47;;;;;;;18.93;79.36;95838.44;4974723;28;20215;-83
2022/08/30 02:38:39;;;;;;;8.18;7.30;;;;;;;18.96;79.14;95834.59;4974620;28;20290;-83
2022/08/30 02:41:06;;;;;;;8.02;7.22;;;;;;;18.94;79.35;95842.66;4974998;28;20211;-83
2022/08/30 02:43:32;;;;;;;8.07;7.38;;;;;;;18.98;79.43;95841.19;4974851;28;20591;-83
2022/08/30 02:45:59;;;;;;;8.95;7.20;;;;;;;19.00;78.98;95848.00;4975327;28;20208;-83
2022/08/30 02:48:25;;;;;;;7.82;7.15;;;;;;;19.05;78.51;95851.53;4975113;28;20220;-83
2022/08/30 02:50:53;;;;;;;7.95;7.15;;;;;;;19.03;78.49;95850.19;4975198;28;20208;-83
2022/08/30 02:53:20;;;;;;;7.55;6.95;;;;;;;19.00;78.36;95856.63;4975497;28;20204;-83
2022/08/30 02:55:47;;;;;;;7.45;6.78;;;;;;;19.06;78.17;95860.16;4974312;28;20262;-82
2022/08/30 02:58:14;;;;;;;7.82;7.13;;;;;;;19.01;78.26;95858.22;4974971;28;20231;-83
2022/08/30 03:00:41;;;;;;;8.13;7.38;;;;;;;18.88;78.93;95864.41;4974130;28;20200;-83
2022/08/30 03:03:09;;;;;;;8.15;7.15;;;;;;;18.87;78.57;95862.81;4975282;28;20224;-83
2022/08/30 03:05:35;;;;;;;7.93;7.13;;;;;;;18.85;78.41;95866.69;4974324;28;20278;-82
2022/08/30 03:08:03;;;;;;;8.27;7.47;;;;;;;18.78;78.63;95860.75;4974905;28;20220;-83
2022/08/30 03:10:30;;;;;;;7.28;6.68;;;;;;;18.70;79.29;95864.44;4974668;28;20208;-83
2022/08/30 03:12:57;;;;;;;7.43;6.82;;;;;;;18.72;79.21;95865.03;4975608;28;20715;-83
2022/08/30 03:15:24;;;;;;;7.82;7.13;;;;;;;18.83;78.83;95861.69;4974012;28;20231;-83
2022/08/30 03:17:51;;;;;;;7.72;7.03;;;;;;;18.79;79.18;95868.34;4975291;28;20304;-83
2022/08/30 03:20:18;;;;;;;7.15;6.60;;;;;;;18.86;78.78;95871.66;4974717;28;20232;-83
2022/08/30 03:22:45;;;;;;;7.15;6.60;;;;;;;18.97;77.91;95872.72;4975450;28;20227;-83
2022/08/30 03:25:13;;;;;;;7.53;6.82;;;;;;;18.97;77.08;95865.69;4975044;28;20232;-83
2022/08/30 03:27:39;;;;;;;10.27;6.85;;;;;;;18.91;76.94;95866.56;4975203;28;20224;-83
2022/08/30 03:30:07;;;;;;;8.07;6.70;;;;;;;18.75;77.67;95863.78;4974704;28;20204;-82
2022/08/30 03:32:34;;;;;;;7.20;6.50;;;;;;;18.66;78.19;95859.91;4975574;28;20207;-83
2022/08/30 03:35:00;;;;;;;7.15;6.55;;;;;;;18.61;78.62;95850.13;4974666;28;20245;-83
2022/08/30 03:37:27;;;;;;;8.30;7.40;;;;;;;18.65;78.28;95856.50;4974697;28;20333;-83
2022/08/30 03:39:54;;;;;;;7.53;6.75;;;;;;;18.67;78.22;95854.44;4974896;28;20286;-83
2022/08/30 03:42:22;;;;;;;7.40;6.70;;;;;;;18.72;77.71;95861.63;4977106;28;20295;-82
2022/08/30 03:44:48;;;;;;;7.75;7.05;;;;;;;18.65;78.10;95856.50;4978028;28;20236;-83
2022/08/30 03:47:15;;;;;;;7.57;6.80;;;;;;;18.70;77.95;95855.81;4978268;28;20224;-83
2022/08/30 03:49:41;;;;;;;7.32;6.72;;;;;;;18.65;78.35;95856.50;4978248;28;20204;-83
2022/08/30 03:52:08;;;;;;;7.55;6.88;;;;;;;18.59;78.35;95850.34;4977591;28;20207;-83
2022/08/30 03:54:34;;;;;;;7.30;6.70;;;;;;;18.57;78.55;95852.34;4977950;28;20227;-83
2022/08/30 03:57:01;;;;;;;7.75;7.00;;;;;;;18.59;78.56;95859.97;4978167;28;20635;-82
2022/08/30 03:59:28;;;;;;;7.38;6.68;;;;;;;18.53;79.20;95860.81;4982771;28;20623;-81
2022/08/30 04:01:55;;;;;;;9.48;7.40;;;;;;;18.45;79.73;95867.16;4990022;28;20239;-81
2022/08/30 04:04:23;;;;;;;7.40;6.78;;;;;;;18.46;79.75;95860.91;4990166;28;20231;-81
2022/08/30 04:06:50;;;;;;;7.53;6.82;;;;;;;18.56;79.47;95863.00;4989685;28;20276;-82
2022/08/30 04:09:17;;;;;;;7.22;6.53;;;;;;;18.61;79.04;95866.56;4989613;28;20228;-82
2022/08/30 04:11:43;;;;;;;7.43;6.72;;;;;;;18.62;78.20;95869.97;4989016;28;20196;-80
2022/08/30 04:14:10;;;;;;;8.38;6.72;;;;;;;18.48;78.91;95864.06;4988843;28;20235;-81
2022/08/30 04:16:38;;;;;;;7.43;6.80;;;;;;;18.25;80.73;95869.97;4988122;28;20219;-82
2022/08/30 04:19:04;;;;;;;7.20;6.47;;;;;;;18.22;80.54;95873.00;4988327;28;20200;-81
2022/08/30 04:21:31;;;;;;;6.95;6.35;;;;;;;18.29;79.82;95875.53;4987558;28;20648;-81
2022/08/30 04:23:57;;;;;;;7.22;6.63;;;;;;;18.34;78.82;95878.28;4987784;28;20235;-81
2022/08/30 04:26:24;;;;;;;7.57;6.88;;;;;;;18.19;80.04;95881.25;4987328;28;20219;-83
2022/08/30 04:28:50;;;;;;;7.47;6.88;;;;;;;18.16;80.66;95873.06;4980709;28;20660;-82
2022/08/30 04:31:17;;;;;;;7.63;6.88;;;;;;;18.06;81.56;95880.59;4980291;28;20208;-82
2022/08/30 04:33:45;;;;;;;7.43;6.82;;;;;;;18.09;81.55;95888.00;4981142;28;20228;-82
2022/08/30 04:36:12;;;;;;;7.97;7.18;;;;;;;18.13;80.97;95882.09;4980683;28;20200;-82
2022/08/30 04:38:40;;;;;;;8.30;7.50;;;;;;;18.21;81.17;95878.44;4981280;28;20278;-81
2022/08/30 04:41:10;;;;;;;8.38;7.57;;;;;;;18.25;80.92;95877.00;4980454;28;20208;-83
2022/08/30 04:43:37;;;;;;;12.27;9.27;;;;;;;18.25;81.28;95885.63;4980914;28;20220;-82
2022/08/30 04:46:05;;;;;;;9.00;8.10;;;;;;;18.37;80.64;95887.47;4980625;28;20610;-82
2022/08/30 04:48:32;;;;;;;7.78;7.18;;;;;;;18.45;80.41;95887.22;4981535;28;20229;-81
2022/08/30 04:51:00;;;;;;;34.67;31.23;;;;;;;18.48;80.52;95892.75;4979498;28;20314;-82
2022/08/30 04:53:27;;;;;;;11.35;10.40;;;;;;;18.50;80.52;95892.53;4980670;28;20203;-81
2022/08/30 04:55:53;;;;;;;8.38;7.57;;;;;;;18.47;80.85;95896.38;4979932;28;20597;-82
2022/08/30 04:58:20;;;;;;;13.10;7.88;;;;;;;18.38;82.33;95904.72;4980467;28;20655;-83
2022/08/30 05:00:46;;;;;;;10.02;8.75;;;;;;;18.42;81.87;95904.06;4979675;28;20204;-83
2022/08/30 05:03:13;;;;;;;7.85;7.03;;;;;;;18.41;82.39;95912.13;4980396;28;20274;-83
2022/08/30 05:05:39;;;;;;;9.18;7.65;;;;;;;18.59;81.27;95907.72;4945886;28;1006569;-82
2022/08/30 05:08:07;;;;;;;7.10;6.50;;;;;;;18.80;80.17;95916.13;4980276;28;20224;-83
2022/08/30 05:10:34;;;;;;;8.45;7.40;;;;;;;18.89;79.69;95914.78;4980903;28;20231;-83
2022/08/30 05:13:01;;;;;;;9.18;7.00;;;;;;;18.90;79.86;95921.59;4981129;28;20283;-83
2022/08/30 05:15:27;;;;;;;8.15;7.03;;;;;;;18.93;79.80;95921.16;4975378;28;20232;-84
2022/08/30 05:17:53;;;;;;;7.35;6.65;;;;;;;18.92;80.30;95930.00;4974690;28;20278;-84
2022/08/30 05:20:20;;;;;;;6.95;6.38;;;;;;;19.01;79.88;95930.50;4973984;28;20212;-84
2022/08/30 05:22:49;;;;;;;7.30;6.72;;;;;;;19.01;80.56;95928.69;4975070;28;20212;-83
2022/08/30 05:25:18;;;;;;;7.75;6.95;;;;;;;19.13;79.90;95936.56;4974208;28;20259;-83
2022/08/30 05:27:45;;;;;;;7.25;6.65;;;;;;;19.08;80.55;95931.19;4974216;28;20220;-84
2022/08/30 05:30:13;;;;;;;10.63;6.45;;;;;;;19.22;79.96;95923.00;4973940;28;20211;-84
2022/08/30 05:32:39;;;;;;;7.15;6.45;;;;;;;19.28;79.99;95923.91;4973883;28;20577;-85
2022/08/30 05:35:07;;;;;;;7.45;6.75;;;;;;;19.33;80.14;95921.41;4973944;28;20232;-84
2022/08/30 05:37:34;;;;;;;7.68;6.88;;;;;;;19.35;80.11;95918.59;4976027;28;20640;-84
2022/08/30 05:40:01;;;;;;;15.88;14.30;;;;;;;19.45;79.57;95913.59;4974435;28;20233;-84
2022/08/30 05:42:36;;;;;;;9.95;9.05;;;;;;;19.47;79.98;95914.97;4973639;28;20204;-84
2022/08/30 05:45:04;;;;;;;9.23;7.72;;;;;;;19.39;80.63;95910.09;4973525;28;20310;-84
2022/08/30 05:47:31;;;;;;;8.18;7.43;;;;;;;19.37;80.82;95913.94;4973383;28;20228;-84
2022/08/30 05:49:57;;;;;;;7.50;6.80;;;;;;;19.44;80.79;95914.63;4973236;28;20691;-84
2022/08/30 05:52:24;;;;;;;7.43;6.82;;;;;;;19.45;80.89;95913.59;4972687;28;20208;-84
2022/08/30 05:54:53;;;;;;;8.52;7.28;;;;;;;19.65;79.84;95911.53;4972965;28;20279;-84
2022/08/30 05:57:20;;;;;;;8.27;7.57;;;;;;;19.65;80.15;95916.75;4973049;28;20661;-84
2022/08/30 05:59:48;;;;;;;7.20;6.50;;;;;;;19.79;79.28;95918.16;4974032;28;21009;-84
2022/08/30 06:02:14;;;;;;;7.43;6.82;;;;;;;19.83;79.11;95919.28;4972772;28;20516;-83
2022/08/30 06:04:41;;;;;;;6.90;6.30;;;;;;;19.97;78.34;95925.09;4972026;28;20719;-84
2022/08/30 06:07:07;;;;;;;7.30;6.50;;;;;;;19.97;78.57;95923.28;4972776;28;20281;-84
2022/08/30 06:09:33;;;;;;;7.03;6.47;;;;;;;19.97;78.69;95923.28;4973474;28;20211;-85
2022/08/30 06:12:00;;;;;;;7.32;6.30;;;;;;;20.11;77.87;95920.44;4972402;28;20204;-84
2022/08/30 06:14:26;;;;;;;7.43;6.55;;;;;;;20.18;77.46;95927.16;4972494;28;20304;-84
2022/08/30 06:16:54;;;;;;;6.60;6.07;;;;;;;20.31;76.70;95926.09;4973664;28;20263;-85
2022/08/30 06:19:22;;;;;;;6.97;6.28;;;;;;;20.35;76.49;95920.19;4973309;28;20204;-84
2022/08/30 06:21:49;;;;;;;7.55;6.25;;;;;;;20.44;76.24;95922.47;4972835;28;20208;-84
2022/08/30 06:24:16;;;;;;;7.32;6.40;;;;;;;20.38;76.84;95928.66;4972747;28;20240;-83
2022/08/30 06:26:45;;;;;;;7.68;6.93;;;;;;;20.44;76.80;95925.88;4973283;28;20208;-84
2022/08/30 06:29:14;;;;;;;6.55;5.95;;;;;;;20.49;76.76;95926.00;4972681;28;20251;-84
2022/08/30 06:31:41;;;;;;;7.78;6.07;;;;;;;20.62;76.20;95927.56;4972858;28;20236;-84
2022/08/30 06:34:09;;;;;;;7.30;6.70;;;;;;;20.52;76.68;95922.94;4972960;28;20375;-84
2022/08/30 06:36:36;;;;;;;6.88;6.28;;;;;;;20.52;76.76;95922.94;4973047;28;20208;-84
2022/08/30 06:39:03;;;;;;;6.70;6.10;;;;;;;20.65;76.46;95927.91;4972667;28;20216;-84
2022/08/30 06:41:32;;;;;;;7.05;6.45;;;;;;;20.84;75.99;95928.53;4971909;28;20243;-84
2022/08/30 06:44:00;;;;;;;7.90;6.78;;;;;;;20.93;75.56;95937.63;4972311;28;20310;-84
2022/08/30 06:46:29;;;;;;;7.78;7.07;;;;;;;20.97;74.91;95930.88;4972593;28;20207;-84
2022/08/30 06:48:56;;;;;;;12.27;11.02;;;;;;;21.14;74.59;95930.16;4972748;28;20235;-83
2022/08/30 06:51:26;;;;;;;9.25;7.97;;;;;;;21.31;73.85;95929.19;4972629;28;20227;-84
2022/08/30 06:53:53;;;;;;;6.90;6.30;;;;;;;21.45;73.02;95928.91;4972370;28;20303;-84
2022/08/30 06:56:21;;;;;;;7.72;6.53;;;;;;;21.53;72.59;95931.94;4972657;28;20266;-84
2022/08/30 06:58:48;;;;;;;8.75;6.60;;;;;;;21.68;72.22;95926.16;4972111;28;20235;-84
2022/08/30 07:01:16;;;;;;;7.20;6.60;;;;;;;21.71;71.51;95926.47;4972548;28;20196;-85
2022/08/30 07:03:43;;;;;;;7.05;6.38;;;;;;;21.87;71.36;95929.34;4976824;28;20263;-81
2022/08/30 07:06:10;;;;;;;7.35;6.13;;;;;;;21.97;70.76;95916.38;4977527;28;20212;-82
2022/08/30 07:08:39;;;;;;;7.25;6.38;;;;;;;21.89;69.92;95920.19;4977459;28;20216;-81
2022/08/30 07:11:06;;;;;;;6.78;6.18;;;;;;;22.01;70.61;95920.94;4977041;28;20215;-82
2022/08/30 07:13:33;;;;;;;6.50;5.90;;;;;;;22.14;70.05;95921.63;4977050;28;20265;-83
2022/08/30 07:15:59;;;;;;;6.70;6.20;;;;;;;22.31;69.62;95920.59;4976291;28;20204;-81
2022/08/30 07:21:13;;;;;;;6.65;6.05;;;;;;;22.62;69.65;95924.38;4976834;28;20247;-83
2022/08/30 07:23:42;;;;;;;7.80;6.28;;;;;;;22.80;68.72;95925.16;4976891;28;20836;-83
2022/08/30 07:26:12;;;;;;;7.10;6.40;;;;;;;22.94;66.59;95924.53;4977550;28;20208;-82
2022/08/30 07:28:41;;;;;;;6.72;6.20;;;;;;;23.15;66.50;95914.25;4976871;28;20232;-83
2022/08/30 07:31:08;;;;;;;7.20;6.60;;;;;;;23.15;65.21;95915.03;4977773;28;20204;-81
2022/08/30 07:33:35;;;;;;;7.78;6.45;;;;;;;23.34;64.75;95915.47;4977563;28;20226;-83
2022/08/30 07:36:03;;;;;;;8.55;7.40;;;;;;;23.43;64.02;95919.25;4977722;28;20212;-82
2022/08/30 07:38:30;;;;;;;9.20;7.68;;;;;;;23.45;63.17;95921.66;4976712;28;20224;-83
2022/08/30 07:41:00;;;;;;;9.95;7.28;;;;;;;23.55;64.69;95927.81;4978142;28;20223;-82
2022/08/30 07:43:26;;;;;;;8.82;7.15;;;;;;;23.69;64.51;95921.09;4976659;28;20204;-82
2022/08/30 07:45:53;;;;;;;7.60;6.85;;;;;;;23.95;63.39;95914.19;4977218;28;20259;-83
2022/08/30 07:48:19;;;;;;;8.10;7.30;;;;;;;24.04;61.65;95920.59;4976235;28;20224;-83
2022/08/30 07:50:47;;;;;;;7.20;6.43;;;;;;;24.25;62.30;95912.81;4977253;28;20608;-82
2022/08/30 07:53:14;;;;;;;7.63;6.82;;;;;;;24.36;61.00;95906.59;4976867;28;20212;-81
2022/08/30 07:55:40;;;;;;;8.10;6.68;;;;;;;24.48;61.80;95916.91;4976684;28;20243;-82
2022/08/30 07:58:08;;;;;;;7.97;7.18;;;;;;;24.60;59.99;95909.59;4976587;28;20500;-82
2022/08/30 08:00:34;;;;;;;8.63;7.32;;;;;;;24.74;60.17;95911.50;4976504;28;20255;-82
2022/08/30 08:03:06;;;;;;;7.30;6.63;;;;;;;24.90;60.10;95922.88;4976399;28;20208;-81
2022/08/30 08:05:37;;;;;;;6.82;6.22;;;;;;;25.07;58.93;95915.59;4976179;28;20287;-83
2022/08/30 08:08:03;;;;;;;7.68;6.97;;;;;;;25.18;58.15;95918.28;4976881;28;20224;-82
2022/08/30 08:10:30;;;;;;;7.10;6.47;;;;;;;25.31;57.50;95921.19;4976242;28;20208;-82
2022/08/30 08:12:56;;;;;;;7.78;7.07;;;;;;;25.36;57.07;95926.47;4976371;28;20208;-83
2022/08/30 08:15:25;;;;;;;8.35;6.97;;;;;;;25.40;56.17;95913.56;4975766;28;20286;-82
2022/08/30 08:17:51;;;;;;;8.65;6.53;;;;;;;25.59;56.21;95914.66;4976520;28;20251;-82
2022/08/30 08:20:18;;;;;;;7.80;7.20;;;;;;;25.53;55.26;95910.41;4976435;28;20259;-82
2022/08/30 08:22:44;;;;;;;7.53;6.82;;;;;;;25.65;56.12;95915.44;4976347;28;20257;-82
2022/08/30 08:25:11;;;;;;;7.05;6.40;;;;;;;25.74;56.29;95917.31;4976133;28;20235;-82
2022/08/30 08:27:37;;;;;;;7.75;6.20;;;;;;;25.98;55.85;95917.53;4977862;28;20227;-82
2022/08/30 08:30:04;;;;;;;11.50;10.50;;;;;;;26.09;52.86;95908.56;4979210;28;20211;-83
2022/08/30 08:32:32;;;;;;;8.73;7.88;;;;;;;26.17;53.18;95912.50;4979501;28;20200;-82
2022/08/30 08:34:58;;;;;;;6.75;6.10;;;;;;;26.24;53.97;95913.03;4979738;28;20224;-82
2022/08/30 08:37:26;;;;;;;8.55;5.95;;;;;;;26.24;51.59;95917.53;4979476;28;20224;-82
2022/08/30 08:39:53;;;;;;;6.78;5.72;;;;;;;26.33;52.66;95921.25;4979860;28;20211;-84
2022/08/30 08:42:30;;;;;;;7.25;6.03;;;;;;;26.63;52.69;95923.78;4978820;28;20204;-84
2022/08/30 08:45:01;;;;;;;5.93;5.53;;;;;;;26.73;50.38;95921.13;4979816;28;20450;-83
2022/08/30 08:47:36;;;;;;;6.22;5.60;;;;;;;26.92;50.43;95931.88;4978760;28;20256;-84
2022/08/30 08:50:05;;;;;;;6.30;5.80;;;;;;;27.00;49.11;95930.53;4979105;28;20202;-84
2022/08/30 08:55:29;;;;;;;5.72;5.22;;;;;;;27.23;48.20;95924.59;4979579;28;20375;-82
2022/08/30 08:57:56;;;;;;;6.72;5.35;;;;;;;27.31;47.98;95915.31;4979497;28;20251;-81
2022/08/30 09:00:23;;;;;;;5.50;5.10;;;;;;;27.38;48.24;95913.13;4979776;28;20590;-81
2022/08/30 09:02:56;;;;;;;7.65;5.45;;;;;;;27.34;48.39;95912.91;4979772;28;20335;-83
2022/08/30 09:05:30;;;;;;;6.07;5.47;;;;;;;27.38;48.51;95915.78;4978808;28;20239;-83
2022/08/30 09:08:01;;;;;;;5.60;5.20;;;;;;;27.67;47.98;95905.31;4979696;28;20231;-82
2022/08/30 09:10:29;;;;;;;5.20;4.82;;;;;;;27.94;47.57;95916.19;4979473;28;20206;-82
2022/08/30 09:12:56;;;;;;;5.30;4.90;;;;;;;28.05;45.65;95912.41;4979438;28;20680;-82
2022/08/30 09:15:24;;;;;;;32.08;28.98;;;;;;;28.19;46.88;95918.63;4978781;28;20316;-82
2022/08/30 09:17:55;;;;;;;12.73;11.63;;;;;;;28.14;45.74;95904.63;4979660;28;20255;-82
2022/08/30 09:20:31;;;;;;;6.03;5.53;;;;;;;28.16;44.96;95905.13;4978618;28;20208;-82
2022/08/30 09:22:58;;;;;;;6.18;5.45;;;;;;;28.27;44.77;95901.34;4979307;28;20211;-83
2022/08/30 09:25:27;;;;;;;9.85;5.55;;;;;;;28.33;44.58;95900.22;4978410;28;20240;-83
2022/08/30 09:27:55;;;;;;;5.63;5.15;;;;;;;28.43;44.69;95902.78;4978728;28;20294;-82
2022/08/30 09:30:24;;;;;;;9.80;5.45;;;;;;;28.48;45.05;95900.03;4978064;28;20624;-82
2022/08/30 09:32:54;;;;;;;5.47;4.80;;;;;;;28.39;44.08;95893.00;4978845;28;20278;-82
2022/08/30 09:35:23;;;;;;;5.00;4.60;;;;;;;28.20;41.93;95898.25;4978202;28;20232;-82
2022/08/30 09:37:55;;;;;;;4.45;4.05;;;;;;;28.32;42.11;95890.69;4978249;28;20224;-82
2022/08/30 09:40:26;;;;;;;5.55;5.00;;;;;;;28.50;43.99;95889.97;4977723;28;20216;-82
2022/08/30 09:43:08;;;;;;;5.05;4.55;;;;;;;28.43;42.28;95894.03;4978709;28;20266;-82
2022/08/30 09:45:39;;;;;;;5.65;5.15;;;;;;;28.46;41.59;95878.38;4978563;28;20228;-82
2022/08/30 09:48:28;;;;;;;5.18;4.78;;;;;;;28.60;41.65;95875.81;4978897;28;20224;-83
2022/08/30 09:51:09;;;;;;;6.35;5.75;;;;;;;28.61;43.76;95880.03;4978196;28;20208;-81
2022/08/30 09:53:39;;;;;;;5.60;5.00;;;;;;;28.39;42.41;95879.75;4978312;28;20212;-83
2022/08/30 09:56:10;;;;;;;6.30;5.80;;;;;;;28.57;44.14;95870.28;4978577;28;20231;-83
2022/08/30 09:58:52;;;;;;;5.30;4.80;;;;;;;28.34;42.31;95869.22;4978721;28;20302;-83
2022/08/30 10:01:24;;;;;;;5.25;4.75;;;;;;;28.22;42.22;95868.84;4977876;28;20631;-82
2022/08/30 10:04:00;;;;;;;4.93;4.38;;;;;;;28.26;43.51;95862.69;4977928;28;20632;-82
2022/08/30 10:06:33;;;;;;;6.13;4.82;;;;;;;28.46;42.27;95861.69;4978000;28;20247;-82
2022/08/30 10:09:14;;;;;;;7.25;4.75;;;;;;;28.52;42.35;95860.53;4977708;28;20228;-82
2022/08/30 10:11:49;;;;;;;6.80;4.88;;;;;;;28.51;42.69;95857.09;4978025;28;20207;-83
2022/08/30 10:14:33;;;;;;;4.80;4.50;;;;;;;28.76;42.89;95853.34;4977155;28;20220;-83
2022/08/30 10:17:05;;;;;;;5.07;4.57;;;;;;;28.87;42.88;95860.13;4978461;28;20623;-82
2022/08/30 10:19:47;;;;;;;7.13;4.40;;;;;;;28.69;42.09;95858.19;4977959;28;20232;-83
2022/08/30 10:22:20;;;;;;;5.55;4.80;;;;;;;28.36;42.01;95843.25;4978004;28;20251;-82
2022/08/30 10:24:50;;;;;;;6.45;5.90;;;;;;;28.35;41.79;95842.44;4977096;28;20550;-83
2022/08/30 10:27:22;;;;;;;6.80;6.13;;;;;;;28.36;42.73;95838.72;4978141;28;20232;-83
2022/08/30 10:29:53;;;;;;;6.07;5.47;;;;;;;28.46;43.78;95851.88;4978465;28;20208;-83
2022/08/30 10:32:24;;;;;;;4.97;4.55;;;;;;;28.45;43.46;95842.34;4977629;28;20204;-83
2022/08/30 10:34:57;;;;;;;5.13;4.63;;;;;;;28.25;43.19;95832.00;4977902;28;20431;-82
2022/08/30 10:37:26;;;;;;;6.05;4.50;;;;;;;28.26;42.03;95838.88;4978522;28;20231;-82
2022/08/30 10:39:57;;;;;;;4.70;3.75;;;;;;;28.25;42.73;95836.50;4977558;28;20204;-82
2022/08/30 10:42:26;;;;;;;5.80;3.92;;;;;;;28.12;40.62;95833.41;4977763;28;20204;-83
2022/08/30 10:44:59;;;;;;;4.88;4.47;;;;;;;28.39;41.11;95822.28;4977210;28;20704;-82
2022/08/30 10:47:36;;;;;;;4.78;4.38;;;;;;;28.42;40.33;95828.88;4978241;28;20239;-82
2022/08/30 10:50:10;;;;;;;4.57;4.15;;;;;;;28.39;40.65;95832.88;4977688;28;20199;-81
2022/08/30 10:52:51;;;;;;;4.95;4.13;;;;;;;28.34;41.62;95824.19;4978716;28;20211;-82
2022/08/30 10:55:24;;;;;;;4.22;3.92;;;;;;;28.33;40.87;95827.91;4977860;28;20259;-82
2022/08/30 10:57:51;;;;;;;4.45;4.15;;;;;;;28.18;39.03;95827.00;4977328;28;20715;-82
2022/08/30 11:00:24;;;;;;;4.40;4.00;;;;;;;28.36;40.04;95822.06;4976981;28;20591;-82
2022/08/30 11:03:18;;;;;;;4.88;4.47;;;;;;;28.37;40.51;95824.41;4977115;28;20224;-83
2022/08/30 11:05:58;;;;;;;7.55;4.20;;;;;;;28.38;41.13;95820.69;4975786;28;20232;-82
2022/08/30 11:08:41;;;;;;;4.05;3.72;;;;;;;28.39;40.68;95824.13;4977177;28;20258;-82
2022/08/30 11:11:17;;;;;;;4.55;4.20;;;;;;;28.33;41.40;95822.59;4976376;28;20239;-82
2022/08/30 11:13:44;;;;;;;4.95;4.50;;;;;;;28.27;40.46;95815.81;4976159;28;20259;-82
2022/08/30 11:16:14;;;;;;;4.47;4.07;;;;;;;28.16;41.07;95815.88;4976219;28;20207;-82
2022/08/30 11:18:44;;;;;;;5.20;4.55;;;;;;;28.02;40.01;95816.84;4975510;28;20222;-82
2022/08/30 11:21:21;;;;;;;4.50;4.10;;;;;;;27.88;39.16;95816.72;4975433;28;20231;-82
2022/08/30 11:24:03;;;;;;;4.55;4.15;;;;;;;27.82;40.71;95808.03;4975244;28;20215;-83
2022/08/30 11:26:56;;;;;;;4.85;4.45;;;;;;;27.93;39.80;95814.00;4974959;28;20301;-82
2022/08/30 11:29:36;;;;;;;4.40;3.97;;;;;;;27.97;40.13;95806.31;4968735;28;20212;-82
2022/08/30 11:32:44;;;;;;;4.55;4.05;;;;;;;27.92;39.65;95804.50;4974549;28;20204;-82
2022/08/30 11:35:37;;;;;;;4.57;4.28;;;;;;;27.90;40.14;95808.50;4974267;28;20224;-84
2022/08/30 11:38:13;;;;;;;4.53;4.22;;;;;;;27.90;40.90;95804.00;4974698;28;20319;-82
2022/08/30 11:40:47;;;;;;;4.78;4.30;;;;;;;27.95;41.72;95806.59;4974251;28;20199;-81
2022/08/30 11:43:51;;;;;;;4.82;4.40;;;;;;;28.00;42.04;95801.25;4975065;28;20227;-82
2022/08/30 11:46:23;;;;;;;4.47;4.18;;;;;;;28.09;43.71;95812.00;4956466;28;20239;-82